Time;durP1;ratioP1;P1;durP2;ratioP2;P2;SDS_P1;SDS_P2;PMS_P1;PMS_P2;Temp;Humidity;BMP_temperature;BMP_pressure;BME280_temperature;BME280_humidity;BME280_pressure;Samples;Min_cycle;Max_cycle;Signal;HPM_P1;HPM_P2
2023/09/11 00:23:25;;;;;;;47.08;32.22;;;;;;;18.60;100.00;101431.72;10129598;29;20048;-96
2023/09/11 00:28:36;;;;;;;47.42;31.02;;;;;;;18.53;100.00;101432.06;10246977;28;20051;-96
2023/09/11 00:34:43;;;;;;;;;;;;;;;;;;;;;
2023/09/11 00:46:30;;;;;;;;;;;;;;;;;;;;;
2023/09/11 00:51:59;;;;;;;48.97;30.30;;;;;;;18.08;100.00;101375.66;10075250;28;20063;-93
2023/09/11 00:57:51;;;;;;;;;;;;;;;;;;;;;
2023/09/11 01:04:01;;;;;;;;;;;;;;;;;;;;;
2023/09/11 01:09:47;;;;;;;;;;;;;;;;;;;;;
2023/09/11 01:15:04;;;;;;;;;;;;;;;;;;;;;
2023/09/11 01:20:50;;;;;;;;;;;;;;;17.96;100.00;101381.59;9771939;29;20134;-93
2023/09/11 01:45:01;;;;;;;;;;;;;;;;;;;;;
2023/09/11 01:57:07;;;;;;;47.38;30.10;;;;;;;17.70;100.00;101362.28;9882213;29;20046;-96
2023/09/11 02:02:41;;;;;;;;;;;;;;;;;;;;;
2023/09/11 02:07:58;;;;;;;37.83;27.23;;;;;;;17.23;100.00;101294.16;10076948;28;20082;-96
2023/09/11 02:13:15;;;;;;;41.20;27.63;;;;;;;15.67;100.00;101061.00;10103996;28;20070;-95
2023/09/11 02:25:31;;;;;;;;;;;;;;;;;;;;;
2023/09/11 03:02:25;;;;;;;;;;;;;;;;;;;;;
2023/09/11 03:08:13;;;;;;;;;;;;;;;;;;;;;
2023/09/11 03:25:31;;;;;;;;;;;;;;;;;;;;;
2023/09/11 03:31:03;;;;;;;35.03;26.50;;;;;;;15.56;100.00;101028.84;9962167;29;20047;-92
2023/09/11 03:42:36;;;;;;;;;;;;;;;;;;;;;
2023/09/11 03:48:22;;;;;;;;;;;;;;;;;;;;;
2023/09/11 03:59:42;;;;;;;;;;;;;;;;;;;;;
2023/09/11 04:05:42;;;;;;;;;;;;;;;;;;;;;
2023/09/11 04:11:28;;;;;;;40.33;26.33;;;;;;;16.54;100.00;101193.91;10064738;28;20061;-92
2023/09/11 04:17:00;;;;;;;;;;;;;;;;;;;;;
2023/09/11 04:22:59;;;;;;;;;;;;;;;;;;;;;
2023/09/11 04:29:22;;;;;;;;;;;;;;;;;;;;;
2023/09/11 04:35:42;;;;;;;;;;;;;;;;;;;;;
2023/09/11 04:41:39;;;;;;;45.38;28.08;;;;;;;15.43;100.00;101024.72;10036356;29;20066;-96
2023/09/11 04:47:06;;;;;;;;;;;;;;;;;;;;;
2023/09/11 04:52:48;;;;;;;41.08;27.65;;;;;;;15.60;100.00;101060.44;9959530;29;20394;-96
2023/09/11 05:10:18;;;;;;;;;;;;;;;;;;;;;
2023/09/11 05:15:54;;;;;;;;;;;;;;;;;;;;;
2023/09/11 05:21:37;;;;;;;;;;;;;;;;;;;;;
2023/09/11 05:27:10;;;;;;;38.83;26.33;;;;;;;16.16;100.00;101078.81;9953087;29;20056;-96
2023/09/11 05:39:38;;;;;;;;;;;;;;;;;;;;;
2023/09/11 05:44:52;;;;;;;;;;;;;;;;;;;;;
2023/09/11 05:50:28;;;;;;;;;;;;;;;;;;;;;
2023/09/11 05:56:11;;;;;;;;;;;;;;;;;;;;;
2023/09/11 06:01:45;;;;;;;43.28;23.67;;;;;;;16.64;100.00;101072.63;9966374;29;20394;-96
2023/09/11 06:07:19;;;;;;;;;;;;;;;;;;;;;
2023/09/11 06:12:51;;;;;;;36.17;21.48;;;;;;;17.21;100.00;101075.78;9973760;29;20449;-92
2023/09/11 06:18:15;;;;;;;33.28;21.17;;;;;;;18.18;100.00;101185.25;9962051;29;20076;-95
2023/09/11 06:28:51;;;;;;;25.23;18.42;;;;;;;18.69;100.00;101179.78;10150520;28;20030;-92
2023/09/11 06:33:52;;;;;;;30.20;18.38;;;;;;;18.28;100.00;101060.50;10173695;28;20477;-91
2023/09/11 06:38:57;;;;;;;29.30;16.38;;;;;;;18.82;100.00;101107.66;10222667;28;20401;-90
2023/09/11 06:44:05;;;;;;;25.25;15.43;;;;;;;19.03;100.00;101130.47;10192674;28;20057;-93
2023/09/11 06:49:08;;;;;;;27.53;14.70;;;;;;;19.04;100.00;101087.47;10225090;28;20038;-91
2023/09/11 06:54:12;;;;;;;30.35;14.70;;;;;;;19.26;100.00;101078.41;10228584;28;20038;-94
2023/09/11 06:59:12;;;;;;;22.13;12.90;;;;;;;19.80;100.00;101135.47;10225251;28;20038;-91
2023/09/11 07:04:14;;;;;;;22.83;14.18;;;;;;;19.65;100.00;101063.13;10279160;28;20125;-92
2023/09/11 07:09:14;;;;;;;19.85;13.35;;;;;;;20.34;100.00;101127.34;10246210;28;20109;-94
2023/09/11 07:14:23;;;;;;;20.95;12.52;;;;;;;20.47;100.00;101111.69;10234133;28;20154;-90
2023/09/11 07:19:24;;;;;;;27.80;13.15;;;;;;;20.50;100.00;101077.47;10274711;28;20037;-94
2023/09/11 07:24:24;;;;;;;33.33;13.73;;;;;;;20.91;100.00;101126.88;10250500;28;20046;-94
2023/09/11 07:29:48;;;;;;;22.77;12.45;;;;;;;20.78;100.00;101083.00;10151801;28;20053;-94
2023/09/11 07:35:11;;;;;;;20.38;13.63;;;;;;;20.75;100.00;101053.66;10182133;28;20065;-95
2023/09/11 07:40:21;;;;;;;22.58;11.35;;;;;;;20.38;100.00;100991.34;10181489;28;20030;-96
2023/09/11 07:45:22;;;;;;;27.25;11.60;;;;;;;21.74;100.00;101179.59;10154138;28;20038;-93
2023/09/11 07:50:22;;;;;;;20.35;11.98;;;;;;;21.15;100.00;101070.53;10218447;28;20125;-93
2023/09/11 07:55:32;;;;;;;26.58;12.05;;;;;;;21.31;100.00;101066.19;10227528;28;20102;-93
2023/09/11 08:00:38;;;;;;;26.92;11.75;;;;;;;21.48;100.00;101068.25;10233290;28;20409;-92
2023/09/11 08:05:44;;;;;;;20.48;11.00;;;;;;;21.34;100.00;101036.69;10239198;28;20049;-92
2023/09/11 08:10:55;;;;;;;;;;;;;;;;;;;;;
2023/09/11 08:15:56;;;;;;;19.40;10.75;;;;;;;22.17;100.00;101137.69;10214673;28;20031;-92
2023/09/11 08:20:57;;;;;;;22.48;11.60;;;;;;;21.49;100.00;100993.44;10232030;28;20078;-91
2023/09/11 08:25:58;;;;;;;22.50;10.35;;;;;;;22.14;100.00;101039.41;10196858;28;20158;-94
2023/09/11 08:31:01;;;;;;;24.17;13.07;;;;;;;22.66;100.00;101089.09;10167190;28;20481;-95
2023/09/11 08:36:02;;;;;;;21.95;11.82;;;;;;;22.49;100.00;101002.94;10110401;28;20043;-86
2023/09/11 08:41:03;;;;;;;17.77;11.73;;;;;;;23.06;100.00;101025.13;10246677;28;20494;-91
2023/09/11 08:46:04;;;;;;;16.20;9.85;;;;;;;23.82;100.00;101084.50;10277991;28;20033;-93
2023/09/11 08:51:08;;;;;;;17.50;10.00;;;;;;;23.53;100.00;100997.00;10209147;28;20102;-95
2023/09/11 08:56:24;;;;;;;14.00;9.70;;;;;;;23.77;100.00;101015.22;10214807;28;20141;-94
2023/09/11 09:01:36;;;;;;;17.58;10.75;;;;;;;24.14;100.00;101018.25;10156992;28;20138;-93
2023/09/11 09:06:39;;;;;;;21.08;10.13;;;;;;;25.23;100.00;101157.09;10197754;28;20050;-94
2023/09/11 09:11:49;;;;;;;17.45;9.32;;;;;;;25.69;100.00;101162.72;10244291;28;20494;-96
2023/09/11 09:16:52;;;;;;;17.00;7.75;;;;;;;25.53;100.00;101086.47;10261756;28;20053;-92
2023/09/11 09:22:05;;;;;;;19.73;8.32;;;;;;;26.29;100.00;101143.34;10278050;28;20133;-94
2023/09/11 09:27:06;;;;;;;14.23;7.63;;;;;;;25.21;100.00;100950.94;10305478;28;20060;-93
2023/09/11 09:32:09;;;;;;;15.05;7.63;;;;;;;26.48;100.00;101117.28;10285317;28;20041;-94
2023/09/11 09:37:17;;;;;;;18.20;7.78;;;;;;;26.57;100.00;101082.13;10275201;28;20516;-93
2023/09/11 09:42:20;;;;;;;14.00;6.88;;;;;;;25.84;100.00;100921.47;10267116;28;20045;-95
2023/09/11 09:47:23;;;;;;;19.48;7.60;;;;;;;26.54;100.00;101014.22;10252510;28;20042;-93
2023/09/11 09:52:28;;;;;;;17.27;7.05;;;;;;;26.17;100.00;100896.69;10281096;28;20056;-92
2023/09/11 09:57:29;;;;;;;14.00;5.68;;;;;;;26.68;100.00;100955.34;10313120;28;20058;-95
2023/09/11 10:02:35;;;;;;;14.00;6.20;;;;;;;27.18;100.00;101012.34;10265460;28;20047;-91
2023/09/11 10:07:45;;;;;;;16.27;6.78;;;;;;;26.69;100.00;100928.78;10298331;28;20049;-94
2023/09/11 10:13:16;;;;;;;11.85;6.07;;;;;;;27.02;100.00;100896.50;10201753;28;20583;-92
2023/09/11 10:18:17;;;;;;;14.18;5.43;;;;;;;28.14;100.00;101022.38;10293714;28;20026;-93
2023/09/11 10:23:18;;;;;;;15.80;6.63;;;;;;;28.06;100.00;100991.47;10262169;28;20415;-92
2023/09/11 10:28:49;;;;;;;14.60;6.22;;;;;;;27.90;100.00;100978.16;10193109;28;20042;-92
2023/09/11 10:34:11;;;;;;;16.15;6.13;;;;;;;28.63;100.00;101074.81;10235537;28;20039;-94
2023/09/11 10:39:11;;;;;;;13.40;6.28;;;;;;;27.92;100.00;100935.38;10211644;28;20130;-93
2023/09/11 10:44:18;;;;;;;17.45;5.85;;;;;;;28.52;100.00;100992.44;10217866;28;20406;-95
2023/09/11 10:49:28;;;;;;;18.05;6.05;;;;;;;28.65;100.00;100966.75;10208496;28;20116;-95
2023/09/11 11:01:04;;;;;;;;;;;;;;;;;;;;;
2023/09/11 11:07:49;;;;;;;;;;;;;;;;;;;;;
2023/09/11 11:46:56;;;;;;;9.77;5.93;;;;;;;30.22;100.00;101038.63;10479698;27;20430;-72
2023/09/11 11:52:00;;;;;;;13.93;6.70;;;;;;;30.40;100.00;101034.03;10474332;28;20036;-71
2023/09/11 11:57:02;;;;;;;10.25;6.07;;;;;;;31.14;100.00;101052.31;10469176;28;20049;-73
2023/09/11 12:02:03;;;;;;;12.70;6.45;;;;;;;31.57;100.00;101039.31;10500876;28;20045;-77
2023/09/11 12:07:04;;;;;;;12.15;6.65;;;;;;;32.14;96.29;101032.38;10520028;28;20041;-73
2023/09/11 12:12:05;;;;;;;11.15;5.05;;;;;;;32.50;94.57;101030.50;10445348;28;20423;-74
2023/09/11 12:17:09;;;;;;;10.20;6.13;;;;;;;32.82;91.92;101031.84;10467979;28;20033;-71
2023/09/11 12:22:10;;;;;;;10.85;5.68;;;;;;;33.35;93.20;101048.25;10497907;28;20045;-74
2023/09/11 12:27:10;;;;;;;11.27;7.38;;;;;;;33.70;88.15;101036.03;10470828;28;20044;-77
2023/09/11 12:32:11;;;;;;;10.85;6.50;;;;;;;33.38;87.34;101044.56;10473243;28;20052;-80
2023/09/11 12:37:11;;;;;;;12.55;7.68;;;;;;;33.69;88.66;101042.13;10466863;28;20085;-76
2023/09/11 12:42:12;;;;;;;16.83;7.25;;;;;;;34.03;87.81;101036.75;10470425;28;20060;-78
2023/09/11 12:47:13;;;;;;;11.02;7.13;;;;;;;34.01;88.92;101041.28;10472124;28;20041;-77
2023/09/11 12:52:13;;;;;;;10.25;6.82;;;;;;;33.88;88.75;101036.00;10465559;28;20048;-77
2023/09/11 12:57:14;;;;;;;8.57;6.22;;;;;;;33.75;87.17;101037.63;10451973;28;20040;-76
2023/09/11 13:02:14;;;;;;;7.03;5.03;;;;;;;33.81;83.11;101036.00;10436455;28;20067;-77
2023/09/11 13:07:15;;;;;;;7.97;4.85;;;;;;;33.41;77.02;101026.63;10465883;28;20501;-77
2023/09/11 13:12:15;;;;;;;7.03;5.70;;;;;;;33.29;78.59;101032.75;10466612;28;20041;-77
2023/09/11 13:17:16;;;;;;;9.98;5.82;;;;;;;33.76;78.63;101036.44;10465610;28;20043;-74
2023/09/11 13:22:16;;;;;;;11.70;5.35;;;;;;;33.65;76.78;101033.56;10463853;28;20045;-78
2023/09/11 13:27:17;;;;;;;8.98;5.57;;;;;;;33.76;76.47;101030.72;10464894;28;20484;-73
2023/09/11 13:32:17;;;;;;;14.93;5.47;;;;;;;33.53;77.18;101034.78;10446048;28;20036;-76
2023/09/11 13:37:18;;;;;;;11.27;4.95;;;;;;;33.64;74.77;101022.56;10464981;28;20041;-79
2023/09/11 13:42:24;;;;;;;8.60;5.10;;;;;;;34.06;74.06;101027.34;10429381;28;20033;-78
2023/09/11 13:47:25;;;;;;;7.07;5.53;;;;;;;33.99;75.63;101033.09;10444247;28;20114;-78
2023/09/11 13:52:25;;;;;;;7.97;5.07;;;;;;;34.16;73.98;101008.59;10461976;28;20091;-76
2023/09/11 13:57:25;;;;;;;6.05;4.68;;;;;;;34.08;75.44;101029.81;10461992;28;20487;-77
2023/09/11 14:02:26;;;;;;;8.85;4.63;;;;;;;34.28;72.33;101015.91;10461591;28;20049;-74
2023/09/11 14:07:27;;;;;;;8.02;4.82;;;;;;;34.11;72.49;101009.81;10458655;28;20044;-76
2023/09/11 14:12:27;;;;;;;8.07;5.07;;;;;;;34.03;73.79;101019.63;10439054;28;20037;-75
2023/09/11 14:17:28;;;;;;;12.65;5.80;;;;;;;33.97;75.36;101018.41;10454948;28;20037;-76
2023/09/11 14:22:28;;;;;;;8.82;5.30;;;;;;;33.98;74.91;101017.19;10442609;28;20409;-74
2023/09/11 14:27:29;;;;;;;7.95;4.63;;;;;;;33.72;75.07;101018.50;10461058;28;20037;-75
2023/09/11 14:32:29;;;;;;;7.25;4.88;;;;;;;33.40;75.07;101022.13;10460125;28;20045;-74
2023/09/11 14:37:30;;;;;;;8.63;4.80;;;;;;;33.32;78.14;101020.50;10458716;28;20090;-75
2023/09/11 14:42:32;;;;;;;6.28;4.15;;;;;;;32.74;78.16;101034.69;10449624;28;20477;-74
2023/09/11 14:47:32;;;;;;;6.65;4.53;;;;;;;32.66;77.90;101027.34;10447960;28;20071;-75
2023/09/11 14:52:33;;;;;;;5.43;3.70;;;;;;;31.97;76.73;101020.47;10459818;28;20120;-76
2023/09/11 14:57:33;;;;;;;6.93;3.60;;;;;;;31.50;79.24;101024.22;10491544;28;20040;-75
2023/09/11 15:02:34;;;;;;;4.63;3.08;;;;;;;31.11;81.04;101036.88;10459149;28;20067;-75
2023/09/11 15:07:34;;;;;;;6.30;3.47;;;;;;;30.92;81.90;101040.72;10451741;28;20072;-74
2023/09/11 15:12:35;;;;;;;6.63;3.95;;;;;;;30.60;83.97;101031.84;10452554;28;20037;-75
2023/09/11 15:17:35;;;;;;;6.45;3.90;;;;;;;30.20;84.00;101033.31;10458569;28;20041;-68
2023/09/11 15:22:36;;;;;;;7.53;3.63;;;;;;;30.19;85.51;101043.06;10459553;28;20055;-74
2023/09/11 15:27:36;;;;;;;5.13;3.42;;;;;;;30.05;85.94;101043.66;10458255;28;20086;-75
2023/09/11 15:32:37;;;;;;;7.82;3.42;;;;;;;29.68;87.08;101054.84;10451189;28;20060;-76
2023/09/11 15:37:37;;;;;;;7.18;3.17;;;;;;;29.45;89.70;101055.69;10457280;28;20067;-74
2023/09/11 15:42:38;;;;;;;9.20;3.80;;;;;;;29.18;90.17;101058.47;10448601;28;20045;-75
2023/09/11 15:47:38;;;;;;;8.23;3.45;;;;;;;28.82;94.13;101070.31;10457186;28;20037;-75
2023/09/11 15:52:39;;;;;;;6.18;3.47;;;;;;;28.23;94.25;101070.25;10456459;28;20056;-72
2023/09/11 15:57:39;;;;;;;4.00;3.33;;;;;;;28.05;100.00;101081.19;10458504;28;20404;-73
2023/09/11 16:02:40;;;;;;;6.68;4.13;;;;;;;27.85;100.00;101100.09;10457962;28;20045;-71
2023/09/11 16:07:41;;;;;;;6.40;4.63;;;;;;;27.57;100.00;101097.38;10457518;28;20036;-68
2023/09/11 16:12:41;;;;;;;6.10;3.95;;;;;;;27.31;100.00;101093.09;10452307;28;20036;-74
2023/09/11 16:17:42;;;;;;;6.32;4.15;;;;;;;27.20;100.00;101113.72;10447139;28;20037;-73
2023/09/11 16:22:44;;;;;;;8.43;5.72;;;;;;;27.05;100.00;101124.63;10456845;28;20033;-73
2023/09/11 16:27:44;;;;;;;7.95;5.00;;;;;;;26.82;100.00;101126.41;10458334;28;20041;-72
2023/09/11 16:32:45;;;;;;;8.15;5.32;;;;;;;26.53;100.00;101125.53;10495929;28;20033;-73
2023/09/11 16:37:47;;;;;;;8.25;4.97;;;;;;;26.35;100.00;101131.44;10465796;28;20065;-73
2023/09/11 16:42:47;;;;;;;7.43;4.90;;;;;;;26.16;100.00;101119.97;10455685;28;20055;-73
2023/09/11 16:47:48;;;;;;;8.88;5.45;;;;;;;26.04;100.00;101125.63;10463637;28;20041;-73
2023/09/11 16:52:49;;;;;;;8.95;5.72;;;;;;;25.76;100.00;101118.66;10462979;28;20036;-76
2023/09/11 16:57:50;;;;;;;11.35;5.82;;;;;;;25.51;100.00;101117.81;10464584;28;20673;-77
2023/09/11 17:02:52;;;;;;;9.85;5.40;;;;;;;25.28;100.00;101116.59;10453571;28;20040;-75
2023/09/11 17:07:52;;;;;;;11.05;6.57;;;;;;;25.07;100.00;101142.78;10463644;28;20064;-77
2023/09/11 17:12:53;;;;;;;11.45;6.80;;;;;;;24.94;100.00;101139.09;10462407;28;20044;-77
2023/09/11 17:17:53;;;;;;;9.93;6.80;;;;;;;24.76;100.00;101152.53;10462957;28;20041;-77
2023/09/11 17:22:54;;;;;;;10.50;7.43;;;;;;;24.57;100.00;101172.72;10461392;28;20056;-79
2023/09/11 17:27:54;;;;;;;10.85;8.57;;;;;;;24.36;100.00;101172.66;10461174;28;20052;-75
2023/09/11 17:32:55;;;;;;;11.50;8.80;;;;;;;24.10;100.00;101163.56;10491597;28;20052;-76
2023/09/11 17:37:55;;;;;;;18.13;10.00;;;;;;;23.89;100.00;101164.31;10460538;28;20064;-77
2023/09/11 17:42:56;;;;;;;15.65;10.25;;;;;;;23.71;100.00;101168.31;10461020;28;20044;-77
2023/09/11 17:47:56;;;;;;;18.08;10.85;;;;;;;23.53;100.00;101165.59;10461920;28;20112;-77
2023/09/11 17:52:57;;;;;;;18.45;10.98;;;;;;;23.30;100.00;101175.41;10457501;28;20116;-78
2023/09/11 17:57:57;;;;;;;18.15;12.93;;;;;;;23.08;100.00;101180.06;10442655;28;20029;-79
2023/09/11 18:02:58;;;;;;;20.25;12.27;;;;;;;22.85;100.00;101184.19;10459979;28;20048;-78
2023/09/11 18:07:58;;;;;;;17.13;11.35;;;;;;;22.69;100.00;101189.44;10458574;28;20029;-78
2023/09/11 18:12:59;;;;;;;21.88;14.32;;;;;;;22.58;100.00;101194.56;10459044;28;20152;-80
2023/09/11 18:17:59;;;;;;;22.20;14.43;;;;;;;22.46;100.00;101202.78;10457715;28;20037;-74
2023/09/11 18:23:00;;;;;;;25.38;15.57;;;;;;;22.35;100.00;101197.50;10448464;28;20056;-77
2023/09/11 18:28:00;;;;;;;21.00;14.77;;;;;;;22.27;100.00;101198.28;10457560;28;20036;-75
2023/09/11 18:33:01;;;;;;;24.70;14.65;;;;;;;22.18;100.00;101208.63;10448309;28;20033;-76
2023/09/11 18:38:01;;;;;;;24.70;15.27;;;;;;;21.82;100.00;101173.19;10450276;28;20052;-76
2023/09/11 18:43:02;;;;;;;25.80;17.50;;;;;;;21.94;100.00;101200.63;10451791;28;20033;-75
2023/09/11 18:48:03;;;;;;;27.98;19.48;;;;;;;21.84;100.00;101195.31;10452078;28;20048;-76
2023/09/11 18:53:04;;;;;;;32.72;23.30;;;;;;;21.71;100.00;101211.91;10444386;28;20045;-77
2023/09/11 18:58:04;;;;;;;37.55;21.52;;;;;;;21.63;100.00;101211.84;10451194;28;20041;-76
2023/09/11 19:03:05;;;;;;;39.72;24.30;;;;;;;21.51;100.00;101213.25;10439174;28;20052;-75
2023/09/11 19:08:05;;;;;;;32.40;22.05;;;;;;;21.41;100.00;101207.06;10449509;28;20044;-74
2023/09/11 19:13:06;;;;;;;31.50;22.05;;;;;;;21.34;100.00;101190.72;10446863;28;20033;-74
2023/09/11 19:18:06;;;;;;;34.67;23.40;;;;;;;21.29;100.00;101182.44;10443353;28;20083;-75
2023/09/11 19:23:07;;;;;;;37.10;23.85;;;;;;;21.25;100.00;101173.03;10447657;28;20044;-73
2023/09/11 19:28:07;;;;;;;31.80;20.45;;;;;;;21.23;100.00;101145.38;10452123;28;20040;-75
2023/09/11 19:33:08;;;;;;;39.00;23.25;;;;;;;21.14;100.00;101215.28;10453895;28;20340;-75
2023/09/11 19:38:08;;;;;;;33.00;23.25;;;;;;;21.05;100.00;101219.19;10445370;28;20052;-74
2023/09/11 19:43:09;;;;;;;31.40;23.60;;;;;;;20.96;100.00;101238.69;10453607;28;20049;-75
2023/09/11 19:48:10;;;;;;;41.55;23.23;;;;;;;20.93;100.00;101236.53;10442757;28;20049;-75
2023/09/11 19:53:10;;;;;;;44.25;26.05;;;;;;;20.88;100.00;101240.28;10450806;28;20041;-75
2023/09/11 19:58:10;;;;;;;39.83;24.90;;;;;;;20.84;100.00;101239.25;10434508;28;20041;-76
2023/09/11 20:03:11;;;;;;;40.60;24.33;;;;;;;20.85;100.00;101245.66;10455715;28;20041;-74
2023/09/11 20:08:11;;;;;;;40.38;24.40;;;;;;;20.75;100.00;101236.38;10461382;28;20056;-75
2023/09/11 20:13:12;;;;;;;38.78;24.52;;;;;;;20.74;100.00;101245.88;10462666;28;20048;-76
2023/09/11 20:18:12;;;;;;;38.13;25.65;;;;;;;20.71;100.00;101240.94;10463043;28;20033;-75
2023/09/11 20:23:14;;;;;;;36.53;25.52;;;;;;;20.68;100.00;101247.16;10465502;28;20045;-75
2023/09/11 20:28:14;;;;;;;38.35;25.55;;;;;;;20.63;100.00;101246.44;10454164;28;20415;-73
2023/09/11 20:33:14;;;;;;;41.90;26.92;;;;;;;20.58;100.00;101247.38;10440949;28;20049;-73
2023/09/11 20:38:16;;;;;;;40.95;25.80;;;;;;;20.53;100.00;101248.28;10443901;28;20041;-73
2023/09/11 20:43:16;;;;;;;44.75;25.80;;;;;;;20.41;100.00;101239.59;10450336;28;20041;-73
2023/09/11 20:48:17;;;;;;;40.17;26.48;;;;;;;20.41;100.00;101245.19;10461714;28;20037;-73
2023/09/11 20:53:17;;;;;;;35.10;23.40;;;;;;;20.35;100.00;101244.47;10462504;28;20041;-74
2023/09/11 20:58:17;;;;;;;39.10;25.30;;;;;;;20.33;100.00;101252.34;10464568;28;20067;-73
2023/09/11 21:03:18;;;;;;;37.58;24.83;;;;;;;20.31;100.00;101251.00;10464269;28;20055;-73
2023/09/11 21:08:18;;;;;;;34.38;22.55;;;;;;;20.31;100.00;101256.59;10463020;28;20041;-72
2023/09/11 21:13:22;;;;;;;35.08;22.33;;;;;;;20.30;100.00;101258.56;10464955;28;20037;-73
2023/09/11 21:18:22;;;;;;;34.17;22.50;;;;;;;20.27;100.00;101264.75;10461522;28;20037;-73
2023/09/11 21:23:24;;;;;;;34.40;22.33;;;;;;;20.26;100.00;101254.72;10462831;28;20037;-73
2023/09/11 21:28:27;;;;;;;33.10;21.15;;;;;;;20.22;100.00;101253.69;10463469;28;20068;-73
2023/09/11 21:33:28;;;;;;;35.17;21.80;;;;;;;20.16;100.00;101263.31;10462169;28;20033;-73
2023/09/11 21:38:28;;;;;;;32.50;21.85;;;;;;;20.07;100.00;101268.81;10458532;28;20045;-72
2023/09/11 21:43:29;;;;;;;43.75;24.80;;;;;;;20.01;100.00;101283.16;10463227;28;20044;-73
2023/09/11 21:48:30;;;;;;;42.83;27.60;;;;;;;19.98;100.00;101297.75;10459662;28;20103;-73
2023/09/11 21:53:30;;;;;;;41.53;27.40;;;;;;;19.91;100.00;101290.63;10443950;28;20056;-73
2023/09/11 21:58:31;;;;;;;37.35;25.83;;;;;;;19.85;100.00;101291.84;10456714;28;20048;-74
2023/09/11 22:03:31;;;;;;;39.58;26.10;;;;;;;19.77;100.00;101284.16;10456300;28;20033;-73
2023/09/11 22:08:32;;;;;;;39.13;26.98;;;;;;;19.70;100.00;101256.63;10460932;28;20064;-73
2023/09/11 22:13:32;;;;;;;42.05;25.58;;;;;;;19.68;100.00;101230.13;10440873;28;20037;-73
2023/09/11 22:18:33;;;;;;;46.50;26.17;;;;;;;19.67;100.00;101248.81;10461194;28;20041;-72
2023/09/11 22:23:33;;;;;;;50.25;26.90;;;;;;;19.67;100.00;101206.09;10458992;28;20048;-75
2023/09/11 22:28:34;;;;;;;49.63;29.55;;;;;;;19.64;100.00;101229.91;10440616;28;20045;-75
2023/09/11 22:33:34;;;;;;;50.33;30.20;;;;;;;19.56;100.00;101239.81;10457184;28;20036;-74
2023/09/11 22:38:35;;;;;;;55.28;29.55;;;;;;;19.49;100.00;101244.13;10454468;28;20099;-74
2023/09/11 22:43:35;;;;;;;47.92;29.60;;;;;;;19.42;100.00;101233.34;10459667;28;20045;-75
2023/09/11 22:48:35;;;;;;;53.92;31.85;;;;;;;19.32;100.00;101234.34;10451389;28;20154;-74
2023/09/11 22:53:36;;;;;;;51.92;32.67;;;;;;;19.27;100.00;101255.94;10453076;28;20065;-75
2023/09/11 22:58:36;;;;;;;56.65;33.75;;;;;;;19.27;100.00;101281.06;10456646;28;20095;-75
2023/09/11 23:03:41;;;;;;;57.25;33.30;;;;;;;19.23;100.00;101275.25;10454939;28;20067;-74
2023/09/11 23:08:41;;;;;;;52.15;33.33;;;;;;;19.22;100.00;101267.19;10454533;28;20087;-75
2023/09/11 23:13:42;;;;;;;53.13;32.63;;;;;;;19.15;100.00;101250.81;10452529;28;20037;-75
2023/09/11 23:18:42;;;;;;;50.78;31.95;;;;;;;19.10;100.00;101268.47;10433259;28;20037;-75
2023/09/11 23:23:44;;;;;;;58.97;33.20;;;;;;;18.94;100.00;101242.75;10456071;28;20037;-75
2023/09/11 23:28:45;;;;;;;61.40;35.15;;;;;;;19.03;100.00;101237.31;10439035;28;20094;-75
2023/09/11 23:33:45;;;;;;;52.83;33.33;;;;;;;19.03;100.00;101223.38;10457818;28;20099;-75
2023/09/11 23:38:46;;;;;;;56.65;33.75;;;;;;;19.01;100.00;101242.38;10456334;28;20060;-75
2023/09/11 23:43:46;;;;;;;56.75;33.70;;;;;;;18.98;100.00;101217.88;10457175;28;20053;-75
2023/09/11 23:48:47;;;;;;;55.10;34.25;;;;;;;18.95;100.00;101215.69;10446284;28;20030;-76
2023/09/11 23:53:48;;;;;;;54.45;34.75;;;;;;;18.94;100.00;101223.22;10454454;28;20069;-75
2023/09/11 23:58:49;;;;;;;57.15;33.60;;;;;;;18.89;100.00;101265.16;10454996;28;20041;-74
